Time;durP1;ratioP1;P1;durP2;ratioP2;P2;SDS_P1;SDS_P2;PMS_P1;PMS_P2;Temp;Humidity;BMP_temperature;BMP_pressure;BME280_temperature;BME280_humidity;BME280_pressure;Samples;Min_cycle;Max_cycle;Signal;HPM_P1;HPM_P2
2023/10/11 00:02:55;;;;;;;12.80;5.10;;;;;;;14.44;66.82;95947.69;5012278;28;20133;-77
2023/10/11 00:05:37;;;;;;;11.05;5.03;;;;;;;14.09;66.90;95884.72;5012173;28;20046;-77
2023/10/11 00:08:03;;;;;;;8.30;4.80;;;;;;;14.46;66.55;95950.91;4998017;28;20037;-77
2023/10/11 00:10:29;;;;;;;10.20;4.47;;;;;;;14.41;66.99;95948.28;5027534;28;20605;-77
2023/10/11 00:12:58;;;;;;;14.88;5.60;;;;;;;14.25;67.16;95930.75;5013652;28;20140;-77
2023/10/11 00:15:29;;;;;;;15.38;5.95;;;;;;;14.39;67.09;95953.09;5013095;28;20050;-77
2023/10/11 00:17:57;;;;;;;13.07;5.13;;;;;;;14.15;66.89;95925.47;5003031;28;20050;-77
2023/10/11 00:20:47;;;;;;;20.88;6.35;;;;;;;14.33;67.21;95950.69;4994607;28;20054;-78
2023/10/11 00:23:15;;;;;;;22.67;6.28;;;;;;;14.39;66.94;95947.75;4993865;28;20145;-77
2023/10/11 00:25:41;;;;;;;14.90;5.70;;;;;;;14.29;67.03;95945.91;4993131;28;20050;-77
2023/10/11 00:28:08;;;;;;;15.75;6.07;;;;;;;14.28;66.93;95948.84;4993061;28;20092;-77
2023/10/11 00:30:40;;;;;;;14.63;6.20;;;;;;;14.20;66.50;95944.91;5011709;28;20115;-77
2023/10/11 00:33:09;;;;;;;12.55;6.15;;;;;;;14.02;66.86;95913.56;5012238;28;20408;-77
2023/10/11 00:35:44;;;;;;;14.43;7.13;;;;;;;14.17;66.32;95934.00;5010932;28;20037;-77
2023/10/11 00:38:11;;;;;;;16.95;6.25;;;;;;;14.10;66.80;95945.00;5010507;28;20416;-77
2023/10/11 00:40:37;;;;;;;8.60;5.35;;;;;;;13.82;67.28;95913.66;5009785;28;20045;-77
2023/10/11 00:43:03;;;;;;;12.52;6.18;;;;;;;14.09;67.04;95951.41;5030192;28;20503;-77
2023/10/11 00:45:36;;;;;;;11.75;5.43;;;;;;;14.08;67.24;95959.66;5018565;28;20050;-77
2023/10/11 00:48:07;;;;;;;22.42;6.28;;;;;;;13.66;67.14;95885.50;4992066;28;20038;-77
2023/10/11 00:50:35;;;;;;;16.42;6.03;;;;;;;13.35;67.13;95837.72;4992424;28;20131;-77
2023/10/11 00:53:01;;;;;;;12.48;5.55;;;;;;;13.65;67.83;95907.94;4993148;28;20461;-77
2023/10/11 00:55:29;;;;;;;12.35;5.40;;;;;;;13.82;67.68;95943.81;4993099;28;20050;-77
2023/10/11 00:57:56;;;;;;;14.07;5.80;;;;;;;13.95;67.59;95965.63;5029372;28;20056;-77
2023/10/11 01:00:23;;;;;;;10.80;5.43;;;;;;;13.93;67.87;95965.88;5026652;28;20033;-77
2023/10/11 01:02:52;;;;;;;13.25;5.63;;;;;;;13.70;67.64;95935.34;5028080;28;20107;-77
2023/10/11 01:05:20;;;;;;;13.55;5.57;;;;;;;13.68;67.58;95923.34;5012659;28;20064;-78
2023/10/11 01:07:46;;;;;;;14.63;5.90;;;;;;;13.93;67.64;95963.22;5015441;28;20560;-78
2023/10/11 01:10:13;;;;;;;25.33;5.75;;;;;;;13.95;67.28;95960.28;5021982;28;20132;-77
2023/10/11 01:12:41;;;;;;;13.40;5.50;;;;;;;13.76;67.45;95950.22;5014016;28;20128;-77
2023/10/11 01:15:13;;;;;;;18.35;5.50;;;;;;;13.90;67.64;95963.75;4996027;28;20189;-77
2023/10/11 01:17:38;;;;;;;15.00;5.38;;;;;;;13.43;67.38;95906.41;5002521;28;20153;-77
2023/10/11 01:20:17;;;;;;;32.30;6.75;;;;;;;13.77;67.49;95959.84;5030370;28;20045;-78
2023/10/11 01:22:46;;;;;;;10.57;5.38;;;;;;;13.66;67.89;95950.28;5015575;28;20056;-76
2023/10/11 01:25:13;;;;;;;8.27;4.82;;;;;;;13.52;67.67;95939.41;5015596;28;20042;-77
2023/10/11 01:27:41;;;;;;;14.45;5.65;;;;;;;13.50;68.10;95959.44;5014938;28;20037;-77
2023/10/11 01:30:09;;;;;;;16.77;6.30;;;;;;;13.44;67.70;95947.16;5033710;28;20436;-77
2023/10/11 01:32:37;;;;;;;12.98;5.13;;;;;;;13.66;67.41;95970.78;5033596;28;20080;-77
2023/10/11 01:35:04;;;;;;;17.92;7.00;;;;;;;13.60;67.70;95972.69;5005749;28;20473;-77
2023/10/11 01:37:36;;;;;;;13.20;5.68;;;;;;;13.44;67.28;95945.31;5011131;28;20050;-76
2023/10/11 01:40:07;;;;;;;9.70;5.60;;;;;;;13.18;68.19;95927.03;5020031;28;20033;-77
2023/10/11 01:42:33;;;;;;;10.68;4.85;;;;;;;13.37;68.05;95928.81;5015015;28;20052;-77
2023/10/11 01:45:00;;;;;;;10.13;5.85;;;;;;;13.43;67.66;95945.56;5014888;28;20045;-78
2023/10/11 01:47:26;;;;;;;10.75;5.20;;;;;;;13.80;67.79;95985.16;5028725;28;20048;-78
2023/10/11 01:49:52;;;;;;;10.23;4.88;;;;;;;13.55;67.46;95951.41;5015462;28;20516;-77
2023/10/11 01:52:18;;;;;;;13.13;5.63;;;;;;;13.79;68.26;96005.69;5015817;28;20067;-77
2023/10/11 01:54:44;;;;;;;13.65;5.93;;;;;;;13.41;67.70;95918.44;5013340;28;20041;-77
2023/10/11 01:57:10;;;;;;;13.02;4.80;;;;;;;13.87;67.83;95999.78;5013816;28;20056;-77
2023/10/11 01:59:35;;;;;;;10.55;4.45;;;;;;;13.54;68.24;95973.78;4996577;28;20046;-77
2023/10/11 02:02:03;;;;;;;11.75;4.80;;;;;;;13.50;68.00;95941.53;4996119;28;20045;-78
2023/10/11 02:04:30;;;;;;;8.85;4.40;;;;;;;13.83;67.88;95997.91;5014387;28;20046;-78
2023/10/11 02:06:57;;;;;;;9.68;4.45;;;;;;;13.68;67.16;95963.34;4996117;28;20042;-77
2023/10/11 02:09:25;;;;;;;10.52;4.15;;;;;;;13.97;67.38;96001.59;5013226;28;20042;-77
2023/10/11 02:11:54;;;;;;;9.02;4.63;;;;;;;13.53;67.24;95937.53;4995584;28;20052;-78
2023/10/11 02:14:23;;;;;;;9.43;4.43;;;;;;;13.65;66.85;95938.03;5012884;28;20050;-77
2023/10/11 02:16:48;;;;;;;11.77;4.50;;;;;;;13.76;66.93;95979.56;5012163;28;20121;-77
2023/10/11 02:19:15;;;;;;;9.35;4.80;;;;;;;13.80;67.08;95983.28;4995318;28;20367;-77
2023/10/11 02:21:44;;;;;;;10.52;4.82;;;;;;;13.96;66.44;95997.31;5013594;28;20511;-77
2023/10/11 02:24:14;;;;;;;9.10;4.13;;;;;;;13.84;66.62;95999.53;5013328;28;20045;-77
2023/10/11 02:26:41;;;;;;;7.88;4.50;;;;;;;13.85;66.46;95999.25;4995367;28;20041;-77
2023/10/11 02:29:15;;;;;;;7.25;4.70;;;;;;;13.96;66.35;96005.31;4995436;28;20045;-77
2023/10/11 02:31:41;;;;;;;7.70;3.97;;;;;;;13.89;65.97;95994.94;5013367;28;20037;-78
2023/10/11 02:34:15;;;;;;;9.38;4.35;;;;;;;13.78;65.67;95972.09;4995570;28;20442;-77
2023/10/11 02:36:45;;;;;;;9.15;4.15;;;;;;;13.83;66.06;95992.59;5011778;28;20090;-77
2023/10/11 02:39:20;;;;;;;14.25;3.90;;;;;;;13.85;66.15;95990.47;4994815;28;20484;-77
2023/10/11 02:41:50;;;;;;;10.38;4.72;;;;;;;13.89;66.01;96013.63;5011907;28;20489;-78
2023/10/11 02:44:16;;;;;;;9.23;4.80;;;;;;;13.87;65.98;96014.97;5012798;28;20487;-77
2023/10/11 02:46:44;;;;;;;8.27;4.80;;;;;;;13.84;66.30;96015.50;5006154;28;20069;-78
2023/10/11 02:49:19;;;;;;;8.80;5.13;;;;;;;13.50;66.59;95978.84;5012614;28;20122;-77
2023/10/11 02:51:52;;;;;;;11.38;5.75;;;;;;;13.95;65.96;96029.63;4994771;28;20060;-77
2023/10/11 02:54:42;;;;;;;8.48;4.75;;;;;;;13.99;65.88;96041.31;5012109;28;20080;-77
2023/10/11 02:57:20;;;;;;;12.57;4.88;;;;;;;13.84;66.05;96008.31;4994288;28;20042;-77
2023/10/11 02:59:50;;;;;;;11.73;4.45;;;;;;;13.93;65.95;96024.56;4994778;28;20116;-78
2023/10/11 03:02:16;;;;;;;7.15;4.50;;;;;;;13.95;65.83;96029.63;5012342;28;20053;-77
2023/10/11 03:04:41;;;;;;;10.50;4.50;;;;;;;13.99;65.92;96038.66;5011949;28;20134;-77
2023/10/11 03:07:23;;;;;;;8.82;4.82;;;;;;;14.00;65.71;96037.59;5012302;28;20038;-77
2023/10/11 03:09:49;;;;;;;11.57;4.13;;;;;;;13.61;65.85;95992.16;5012033;28;20046;-77
2023/10/11 03:12:30;;;;;;;11.50;4.82;;;;;;;13.67;66.17;96015.03;4994312;28;20132;-77
2023/10/11 03:14:56;;;;;;;10.77;4.47;;;;;;;13.28;66.24;95956.28;5011709;28;20073;-78
2023/10/11 03:17:22;;;;;;;7.93;4.25;;;;;;;13.75;65.94;96033.94;4994290;28;20045;-78
2023/10/11 03:19:54;;;;;;;14.75;4.20;;;;;;;13.77;65.66;96039.00;5011791;28;20062;-78
2023/10/11 03:22:20;;;;;;;7.22;3.95;;;;;;;13.68;66.20;96025.44;5012548;28;20270;-77
2023/10/11 03:24:53;;;;;;;11.48;4.65;;;;;;;13.77;65.63;96025.69;4995194;28;20488;-77
2023/10/11 03:27:19;;;;;;;13.88;5.20;;;;;;;13.75;66.21;96054.47;4995301;28;20069;-77
2023/10/11 03:29:45;;;;;;;10.95;4.30;;;;;;;13.68;66.42;96038.75;4994794;28;20052;-77
2023/10/11 03:32:10;;;;;;;8.88;3.95;;;;;;;13.75;66.23;96038.47;4994556;28;20049;-77
2023/10/11 03:34:36;;;;;;;10.93;4.05;;;;;;;13.62;66.21;96025.72;4994775;28;20454;-77
2023/10/11 03:37:17;;;;;;;12.00;4.40;;;;;;;13.73;65.91;96037.97;5012440;28;20116;-77
2023/10/11 03:39:44;;;;;;;13.02;4.55;;;;;;;13.66;66.25;96026.78;4994560;28;20109;-78
2023/10/11 03:44:36;;;;;;;6.15;3.90;;;;;;;13.52;66.68;96039.88;5012807;28;20034;-78
2023/10/11 03:47:06;;;;;;;11.80;3.80;;;;;;;13.58;66.18;96038.03;4995111;28;20046;-77
2023/10/11 03:49:37;;;;;;;12.07;4.53;;;;;;;13.53;65.74;96028.16;5013047;28;20042;-78
2023/10/11 03:52:04;;;;;;;12.18;4.38;;;;;;;13.76;65.35;96048.06;5013427;28;20437;-77
2023/10/11 03:54:30;;;;;;;8.00;4.25;;;;;;;13.87;65.03;96057.66;5010977;28;20044;-76
2023/10/11 03:56:56;;;;;;;11.40;4.50;;;;;;;13.70;65.08;96022.50;5009974;28;20049;-76
2023/10/11 03:59:26;;;;;;;9.02;4.00;;;;;;;14.11;64.71;96076.50;5010605;28;20052;-76
2023/10/11 04:01:59;;;;;;;8.27;4.38;;;;;;;14.04;64.24;96066.09;5009830;28;20042;-76
2023/10/11 04:04:25;;;;;;;8.75;4.18;;;;;;;14.06;64.10;96068.50;5008923;28;20042;-76
2023/10/11 04:07:00;;;;;;;17.35;4.85;;;;;;;14.10;63.79;96080.22;5012746;28;20542;-76
2023/10/11 04:10:09;;;;;;;23.42;4.72;;;;;;;14.11;63.96;96084.50;4995427;28;20107;-76
2023/10/11 04:12:23;;;;;;;7.53;4.30;;;;;;;14.18;63.13;96085.00;5004508;28;20053;-75
2023/10/11 04:14:49;;;;;;;13.38;4.82;;;;;;;14.05;63.31;96062.34;4992345;28;20037;-76
2023/10/11 04:22:57;;;;;;;11.50;4.25;;;;;;;14.32;62.24;96096.66;5016596;28;20614;-76
2023/10/11 04:25:23;;;;;;;13.20;2.97;;;;;;;14.34;62.13;96086.53;5006291;28;20460;-75
2023/10/11 04:27:58;;;;;;;14.82;3.70;;;;;;;14.07;62.29;96080.75;4996019;28;20042;-76
2023/10/11 04:30:26;;;;;;;16.42;3.83;;;;;;;14.28;61.51;96088.38;4962717;28;20050;-76
2023/10/11 04:32:56;;;;;;;13.75;4.25;;;;;;;14.24;61.48;96097.22;4982989;28;20500;-76
2023/10/11 04:35:36;;;;;;;17.88;3.47;;;;;;;14.04;61.26;96066.09;4949880;28;20678;-75
2023/10/11 04:38:03;;;;;;;12.15;4.00;;;;;;;14.04;61.27;96059.94;4975052;28;20038;-75
2023/10/11 04:43:04;;;;;;;16.92;3.65;;;;;;;13.81;61.13;96040.03;4968709;28;20080;-75
2023/10/11 04:45:44;;;;;;;13.20;3.58;;;;;;;14.07;61.16;96092.22;4946573;28;20484;-75
2023/10/11 04:48:14;;;;;;;21.48;3.97;;;;;;;13.99;61.12;96092.78;4969379;28;20053;-76
2023/10/11 04:50:45;;;;;;;12.52;3.63;;;;;;;14.21;61.34;96105.75;4977469;28;20081;-76
2023/10/11 04:53:18;;;;;;;7.45;3.35;;;;;;;13.91;60.41;96056.81;4974822;28;20124;-76
2023/10/11 04:55:59;;;;;;;14.93;4.60;;;;;;;14.10;60.77;96093.56;4990981;28;20092;-77
2023/10/11 04:58:49;;;;;;;12.68;3.42;;;;;;;14.08;60.80;96088.50;4993763;28;20672;-75
2023/10/11 05:01:22;;;;;;;14.40;3.55;;;;;;;14.35;60.38;96119.31;4975066;28;20602;-77
2023/10/11 05:04:00;;;;;;;22.58;4.05;;;;;;;14.07;60.58;96078.88;4980609;28;20069;-76
2023/10/11 05:06:39;;;;;;;15.55;3.78;;;;;;;14.38;60.33;96132.94;4977316;28;20362;-75
2023/10/11 05:11:50;;;;;;;14.55;4.85;;;;;;;14.44;59.95;96131.84;4987345;28;20045;-74
2023/10/11 05:14:36;;;;;;;8.82;3.40;;;;;;;14.40;59.58;96122.00;4990104;28;20117;-75
2023/10/11 05:19:47;;;;;;;7.15;3.50;;;;;;;14.45;59.68;96137.97;4997813;28;20127;-77
2023/10/11 05:32:41;;;;;;;17.02;4.15;;;;;;;14.20;59.51;96082.81;4996217;28;20510;-74
2023/10/11 05:51:29;;;;;;;9.48;3.92;;;;;;;14.60;58.45;96145.91;4993712;28;20115;-74
2023/10/11 05:54:02;;;;;;;11.70;4.05;;;;;;;14.75;58.28;96153.03;4980102;28;20055;-74
2023/10/11 05:56:33;;;;;;;14.10;4.30;;;;;;;14.67;58.63;96157.88;5015522;28;20132;-73
2023/10/11 05:59:03;;;;;;;18.70;4.57;;;;;;;14.68;57.83;96158.69;5011510;28;20044;-74
2023/10/11 06:01:30;;;;;;;10.20;3.60;;;;;;;14.41;58.06;96126.28;4986563;28;20079;-74
2023/10/11 06:03:57;;;;;;;10.82;4.00;;;;;;;14.47;58.56;96162.53;4974902;28;20056;-74
2023/10/11 06:06:23;;;;;;;17.98;4.28;;;;;;;14.47;58.51;96135.84;4987048;28;20061;-77
2023/10/11 06:08:59;;;;;;;11.27;3.75;;;;;;;14.42;57.93;96131.31;5008202;28;20460;-75
2023/10/11 06:11:36;;;;;;;10.70;3.38;;;;;;;14.41;58.31;96128.94;4990241;28;20069;-75
2023/10/11 06:14:06;;;;;;;15.57;5.50;;;;;;;14.61;58.28;96174.22;4968806;28;20668;-75
2023/10/11 06:16:39;;;;;;;14.13;4.33;;;;;;;14.57;58.06;96163.28;4976219;28;20524;-74
2023/10/11 06:19:17;;;;;;;13.07;3.88;;;;;;;14.61;58.43;96167.00;4970679;28;20190;-75
2023/10/11 06:21:56;;;;;;;11.52;4.22;;;;;;;14.82;57.96;96190.91;4972819;28;20550;-76
2023/10/11 06:24:36;;;;;;;17.15;4.20;;;;;;;14.76;57.82;96194.69;5002040;28;20523;-76
2023/10/11 06:29:53;;;;;;;10.20;3.35;;;;;;;14.74;57.91;96186.16;5008955;28;20049;-75
2023/10/11 06:32:23;;;;;;;10.68;4.10;;;;;;;14.62;58.02;96168.59;4984255;28;20067;-74
2023/10/11 06:34:52;;;;;;;10.43;4.00;;;;;;;14.83;57.70;96198.66;4997931;28;20620;-76
2023/10/11 06:37:24;;;;;;;10.40;4.63;;;;;;;14.70;58.09;96185.13;4980993;28;20125;-74
2023/10/11 06:44:57;;;;;;;16.30;4.75;;;;;;;14.84;57.90;96205.59;5010795;28;20040;-74
2023/10/11 06:47:23;;;;;;;19.15;4.68;;;;;;;14.89;57.57;96210.09;5007159;28;20033;-74
2023/10/11 06:49:54;;;;;;;16.63;4.20;;;;;;;14.80;58.10;96206.44;5002963;28;20787;-74
2023/10/11 06:52:30;;;;;;;16.17;3.78;;;;;;;14.57;58.56;96200.63;5001944;28;20288;-75
2023/10/11 06:57:39;;;;;;;13.60;4.03;;;;;;;14.54;58.73;96205.75;4991303;28;20038;-74
2023/10/11 07:00:21;;;;;;;14.57;5.07;;;;;;;14.63;58.28;96196.09;5003824;28;20160;-74
2023/10/11 07:03:06;;;;;;;11.35;4.45;;;;;;;14.73;57.67;96193.38;5005441;28;20038;-75
2023/10/11 07:05:45;;;;;;;11.05;4.70;;;;;;;14.79;57.61;96202.16;5012827;28;20075;-74
2023/10/11 07:08:17;;;;;;;8.57;4.45;;;;;;;14.78;57.68;96189.88;5009582;28;20029;-74
2023/10/11 07:10:46;;;;;;;;;;;;;;;14.97;57.40;96212.19;4995682;28;20121;-75
2023/10/11 07:13:13;;;;;;;14.88;5.40;;;;;;;14.46;57.48;96145.72;5013053;28;19921;-76
2023/10/11 07:15:49;;;;;;;10.40;4.63;;;;;;;14.75;57.19;96171.72;5007124;28;20605;-75
2023/10/11 07:18:25;;;;;;;14.95;5.82;;;;;;;14.72;57.79;96169.63;5007797;28;20145;-76
2023/10/11 07:21:08;;;;;;;16.17;5.05;;;;;;;14.75;57.53;96155.72;5006758;28;20432;-75
2023/10/11 07:23:35;;;;;;;9.93;4.32;;;;;;;15.04;57.29;96183.31;5010519;28;20509;-77
2023/10/11 07:28:50;;;;;;;19.65;5.93;;;;;;;14.83;57.56;96133.78;5012329;28;20364;-77
2023/10/11 07:31:17;;;;;;;34.55;8.05;;;;;;;15.01;57.19;96152.63;4987366;28;20045;-77
2023/10/11 07:33:43;;;;;;;14.20;5.60;;;;;;;15.03;56.96;96147.78;4985875;28;20055;-76
2023/10/11 07:36:11;;;;;;;10.95;5.47;;;;;;;15.11;57.01;96170.44;4992169;28;20086;-76
2023/10/11 07:38:43;;;;;;;8.90;5.38;;;;;;;14.99;57.04;96140.63;5010630;28;20293;-77
2023/10/11 07:41:17;;;;;;;;;;;;;;;15.24;56.79;96180.53;4989042;28;20513;-77
2023/10/11 07:43:45;;;;;;;16.48;6.53;;;;;;;14.87;56.41;96121.47;4994938;28;19921;-77
2023/10/11 07:46:11;;;;;;;11.65;5.47;;;;;;;15.29;56.74;96195.72;4994637;28;20045;-77
2023/10/11 07:48:39;;;;;;;13.00;5.32;;;;;;;15.16;56.58;96173.09;4994993;28;20095;-78
2023/10/11 07:51:09;;;;;;;12.15;4.93;;;;;;;15.35;56.25;96186.56;5007068;28;20026;-77
2023/10/11 07:53:43;;;;;;;18.75;6.13;;;;;;;15.30;55.96;96178.59;4983518;28;20042;-79
2023/10/11 07:56:09;;;;;;;15.02;6.18;;;;;;;14.95;56.41;96123.56;4994750;28;20056;-78
2023/10/11 07:58:44;;;;;;;8.40;5.63;;;;;;;15.30;56.43;96202.66;4993945;28;20114;-77
2023/10/11 08:01:24;;;;;;;12.75;4.90;;;;;;;14.96;56.65;96138.47;5002991;28;20109;-80
2023/10/11 08:03:51;;;;;;;9.15;4.70;;;;;;;15.41;56.39;96209.50;5002763;28;20052;-77
2023/10/11 08:06:23;;;;;;;24.50;5.80;;;;;;;15.34;56.33;96172.41;5004273;28;20369;-78
2023/10/11 08:08:58;;;;;;;9.30;5.28;;;;;;;14.93;56.50;96117.69;5007440;28;20064;-78
2023/10/11 08:11:28;;;;;;;17.10;5.68;;;;;;;14.78;56.16;96089.22;4999213;28;20041;-78
2023/10/11 08:14:00;;;;;;;14.98;6.32;;;;;;;15.33;55.78;96170.81;4990386;28;20037;-77
2023/10/11 08:16:26;;;;;;;13.57;6.32;;;;;;;15.09;55.93;96142.44;5008091;28;20053;-77
2023/10/11 08:18:52;;;;;;;20.17;5.95;;;;;;;15.67;55.63;96210.94;4990285;28;20088;-77
2023/10/11 08:21:22;;;;;;;8.38;4.72;;;;;;;15.72;55.93;96212.78;5013412;28;20045;-76
2023/10/11 08:23:50;;;;;;;15.23;5.03;;;;;;;15.76;55.58;96205.81;5004122;28;20037;-76
2023/10/11 08:26:17;;;;;;;15.35;5.53;;;;;;;15.86;55.66;96219.09;4997332;28;20267;-77
2023/10/11 08:28:49;;;;;;;18.50;5.28;;;;;;;15.53;55.23;96159.22;4973013;28;20051;-76
2023/10/11 08:31:27;;;;;;;7.70;4.40;;;;;;;15.66;54.87;96179.13;5012325;28;20042;-76
2023/10/11 08:33:53;;;;;;;19.45;5.72;;;;;;;15.71;54.66;96171.88;5010341;28;20042;-78
2023/10/11 08:36:20;;;;;;;13.50;4.68;;;;;;;15.96;54.44;96218.97;4995964;28;20042;-76
2023/10/11 08:38:45;;;;;;;20.50;6.05;;;;;;;16.02;54.70;96209.81;4998038;28;20029;-75
2023/10/11 08:41:15;;;;;;;9.13;5.03;;;;;;;15.92;54.99;96187.75;5009324;28;20468;-75
2023/10/11 08:43:42;;;;;;;7.60;5.05;;;;;;;15.86;54.77;96165.59;4993043;28;20095;-75
2023/10/11 08:46:12;;;;;;;12.57;5.78;;;;;;;15.89;54.98;96173.03;4992589;28;20038;-75
2023/10/11 08:48:39;;;;;;;15.30;4.82;;;;;;;15.78;55.42;96161.66;4991133;28;20128;-76
2023/10/11 08:51:10;;;;;;;9.55;5.20;;;;;;;16.10;54.82;96189.69;4991399;28;20042;-77
2023/10/11 08:53:38;;;;;;;;;;;;;;;16.16;54.42;96193.91;4980404;28;20071;-76
2023/10/11 08:56:03;;;;;;;11.13;5.32;;;;;;;16.22;54.67;96198.13;5008903;28;19920;-77
2023/10/11 08:58:29;;;;;;;9.32;4.80;;;;;;;16.23;54.71;96191.69;4974762;28;20042;-77
2023/10/11 09:00:59;;;;;;;19.05;6.05;;;;;;;16.34;54.50;96203.06;4995181;28;20580;-75
2023/10/11 09:03:28;;;;;;;20.45;5.53;;;;;;;16.35;54.16;96202.00;5004406;28;20139;-77
2023/10/11 09:06:00;;;;;;;11.48;5.03;;;;;;;16.41;54.61;96203.53;4996559;28;20113;-76
2023/10/11 09:08:31;;;;;;;10.13;5.07;;;;;;;16.35;54.12;96189.41;4997635;28;20042;-78
2023/10/11 09:11:06;;;;;;;13.07;5.43;;;;;;;16.52;53.88;96200.47;4993814;28;20079;-77
2023/10/11 09:13:36;;;;;;;8.02;4.85;;;;;;;16.43;53.38;96185.31;5010048;28;20052;-76
2023/10/11 09:16:08;;;;;;;10.25;5.07;;;;;;;16.64;52.93;96199.28;4994392;28;20119;-76
2023/10/11 09:18:34;;;;;;;11.32;4.85;;;;;;;16.27;53.87;96192.72;5002315;28;20096;-78
2023/10/11 09:21:09;;;;;;;7.28;4.47;;;;;;;16.53;53.91;96202.06;5009450;28;20054;-77
2023/10/11 09:23:46;;;;;;;12.68;5.22;;;;;;;16.33;54.31;96159.44;5002602;28;20041;-76
2023/10/11 09:26:32;;;;;;;10.25;4.85;;;;;;;16.73;53.65;96195.69;4992188;28;20437;-78
2023/10/11 09:28:58;;;;;;;11.23;4.90;;;;;;;16.67;53.57;96188.00;5000157;28;20350;-77
2023/10/11 09:31:26;;;;;;;10.52;4.88;;;;;;;16.76;53.11;96180.94;5021453;28;20508;-80
2023/10/11 09:33:59;;;;;;;12.98;5.30;;;;;;;16.68;53.54;96166.28;5002006;28;20046;-77
2023/10/11 09:36:26;;;;;;;12.25;5.00;;;;;;;16.83;53.28;96179.47;4969866;28;20118;-78
2023/10/11 09:38:54;;;;;;;15.70;5.75;;;;;;;16.58;53.19;96120.84;5001457;28;20251;-79
2023/10/11 09:41:52;;;;;;;9.55;5.78;;;;;;;16.78;53.08;96134.00;4975807;28;20046;-76
2023/10/11 09:44:28;;;;;;;14.38;5.45;;;;;;;17.07;53.05;96167.91;4989664;28;20098;-78
2023/10/11 09:46:57;;;;;;;9.68;4.30;;;;;;;17.12;52.60;96165.16;5010070;28;20381;-76
2023/10/11 09:49:26;;;;;;;19.50;6.07;;;;;;;17.43;52.20;96162.78;5010955;28;20125;-77
2023/10/11 09:51:53;;;;;;;13.68;4.80;;;;;;;18.39;50.62;96167.25;5010632;28;20115;-75
2023/10/11 09:54:19;;;;;;;13.32;4.68;;;;;;;18.58;47.91;96032.09;4996364;28;20038;-75
2023/10/11 09:57:06;;;;;;;15.20;4.68;;;;;;;20.65;45.10;96165.94;5009346;28;20037;-75
2023/10/11 10:00:09;;;;;;;13.70;4.45;;;;;;;21.82;41.78;96166.63;4991419;28;20137;-77
2023/10/11 10:02:37;;;;;;;13.90;3.30;;;;;;;22.94;39.13;96131.06;5018420;28;20480;-76
2023/10/11 10:05:06;;;;;;;11.55;4.28;;;;;;;23.95;37.97;96152.50;4989580;28;20970;-76
2023/10/11 10:07:45;;;;;;;8.65;4.40;;;;;;;24.88;35.65;96155.19;4991008;28;20042;-75
2023/10/11 10:10:15;;;;;;;6.50;3.17;;;;;;;25.75;33.78;96154.66;5025937;28;20746;-79
2023/10/11 10:13:04;;;;;;;10.50;4.38;;;;;;;26.42;32.81;96151.00;5022363;28;20088;-76
2023/10/11 10:15:46;;;;;;;17.40;4.03;;;;;;;26.11;32.00;96062.03;4986886;28;20054;-75
2023/10/11 10:18:20;;;;;;;8.93;3.95;;;;;;;26.87;31.16;96145.06;4992413;28;20600;-73
2023/10/11 10:20:59;;;;;;;11.25;5.25;;;;;;;27.19;31.16;96126.75;4998960;28;20055;-76
2023/10/11 10:23:27;;;;;;;22.10;4.40;;;;;;;27.69;30.27;96135.97;4990363;28;20708;-77
2023/10/11 10:26:06;;;;;;;10.23;3.63;;;;;;;27.88;29.64;96129.69;4992311;28;20033;-77
2023/10/11 10:28:42;;;;;;;9.23;3.83;;;;;;;28.08;29.58;96128.47;4979913;28;20041;-78
2023/10/11 10:31:09;;;;;;;11.15;3.70;;;;;;;27.91;29.84;96124.31;4964927;28;20949;-78
2023/10/11 10:33:42;;;;;;;6.25;3.13;;;;;;;27.84;29.00;96113.28;4920151;28;20067;-77
2023/10/11 10:36:28;;;;;;;6.20;2.72;;;;;;;28.12;28.52;96114.91;4924462;28;20064;-76
2023/10/11 10:39:00;;;;;;;6.53;3.28;;;;;;;28.39;28.37;96116.56;4969419;28;20053;-76
2023/10/11 10:41:36;;;;;;;11.95;3.08;;;;;;;27.80;28.75;96084.38;4982844;28;20515;-75
2023/10/11 10:44:16;;;;;;;8.10;3.38;;;;;;;28.34;28.37;96101.31;4988190;28;20045;-77
2023/10/11 10:46:59;;;;;;;5.43;3.15;;;;;;;28.02;28.51;96097.22;4994194;28;20621;-75
2023/10/11 10:49:42;;;;;;;6.13;3.53;;;;;;;28.18;28.25;96102.59;4981873;28;20042;-77
2023/10/11 10:52:22;;;;;;;13.73;3.85;;;;;;;27.84;28.24;96030.72;4994952;28;20071;-74
2023/10/11 10:55:02;;;;;;;16.77;3.88;;;;;;;28.28;28.56;96093.81;5001083;28;20061;-76
2023/10/11 10:57:31;;;;;;;7.13;3.03;;;;;;;27.92;28.67;96063.16;5006955;28;20034;-75
2023/10/11 11:00:05;;;;;;;7.15;2.92;;;;;;;27.79;28.46;96063.69;4998170;28;20056;-76
2023/10/11 11:02:37;;;;;;;8.85;3.67;;;;;;;27.59;28.79;96093.72;4991516;28;20470;-76
2023/10/11 11:05:15;;;;;;;6.85;3.10;;;;;;;27.51;28.87;96080.28;4978830;28;20049;-76
2023/10/11 11:07:47;;;;;;;7.25;2.90;;;;;;;27.54;28.55;96074.94;4996836;28;20034;-76
2023/10/11 11:10:20;;;;;;;6.07;2.85;;;;;;;27.57;28.48;96087.06;4997124;28;20100;-76
2023/10/11 11:12:49;;;;;;;6.50;2.90;;;;;;;27.51;28.57;96072.13;5009268;28;20520;-78
2023/10/11 11:15:23;;;;;;;9.98;3.42;;;;;;;27.73;28.48;96092.41;5011840;28;20037;-78
2023/10/11 11:17:50;;;;;;;5.45;2.90;;;;;;;27.79;28.69;96058.25;5003029;28;20045;-76
2023/10/11 11:22:46;;;;;;;8.63;3.45;;;;;;;28.12;27.78;96066.63;5012656;28;20045;-77
2023/10/11 11:25:27;;;;;;;4.47;2.80;;;;;;;27.57;28.55;96038.81;4997524;28;20666;-78
2023/10/11 11:28:24;;;;;;;10.60;3.55;;;;;;;27.85;28.24;96063.03;5011492;28;20037;-79
2023/10/11 11:31:05;;;;;;;12.52;3.45;;;;;;;27.78;28.96;96068.38;5011800;28;20256;-79
2023/10/11 11:33:47;;;;;;;6.82;3.28;;;;;;;26.91;29.81;96057.28;4997334;28;20045;-78
2023/10/11 11:36:34;;;;;;;7.35;3.25;;;;;;;26.50;30.66;96070.34;5009405;28;20038;-78
2023/10/11 11:41:52;;;;;;;7.40;2.70;;;;;;;25.81;31.25;96073.69;5012562;28;20107;-79
2023/10/11 11:44:27;;;;;;;9.45;2.95;;;;;;;25.26;32.15;96059.00;5000007;28;20041;-79
2023/10/11 11:46:54;;;;;;;9.60;3.50;;;;;;;25.36;31.96;96043.00;5016749;28;20092;-78
2023/10/11 11:49:24;;;;;;;8.43;3.85;;;;;;;25.58;31.93;96057.16;5012284;28;20045;-80
2023/10/11 11:51:51;;;;;;;11.55;3.47;;;;;;;25.53;31.74;96057.41;5011413;28;20045;-79
2023/10/11 11:54:21;;;;;;;6.05;2.70;;;;;;;25.63;31.49;96049.56;5018120;28;20089;-79
2023/10/11 11:56:54;;;;;;;13.13;4.20;;;;;;;25.75;31.44;96052.22;5015314;28;20498;-79
2023/10/11 11:59:23;;;;;;;11.07;4.15;;;;;;;25.16;31.00;95935.44;5013855;28;20085;-78
2023/10/11 12:01:56;;;;;;;9.82;3.30;;;;;;;25.83;31.09;96055.09;5000074;28;20044;-79
2023/10/11 12:04:29;;;;;;;8.73;2.95;;;;;;;26.14;30.92;96038.81;4991405;28;20060;-80
2023/10/11 12:06:57;;;;;;;7.63;2.67;;;;;;;26.13;30.72;96029.84;4990620;28;20047;-79
2023/10/11 12:09:23;;;;;;;7.93;3.03;;;;;;;26.48;30.45;96050.88;5011394;28;20034;-78
2023/10/11 12:11:49;;;;;;;5.22;3.38;;;;;;;26.10;30.46;96010.72;5003364;28;20484;-78
2023/10/11 12:14:16;;;;;;;6.53;3.38;;;;;;;26.05;30.69;96005.56;4983175;28;20143;-78
2023/10/11 12:16:42;;;;;;;4.85;2.85;;;;;;;25.96;30.62;95981.28;4988658;28;20435;-78
2023/10/11 12:19:13;;;;;;;5.32;3.00;;;;;;;26.28;30.04;96022.84;4981051;28;20993;-78
2023/10/11 12:21:39;;;;;;;7.40;2.90;;;;;;;26.49;29.67;96033.41;4992147;28;20042;-78
2023/10/11 12:24:11;;;;;;;10.50;2.95;;;;;;;26.08;30.24;96029.34;4999993;28;20052;-78
2023/10/11 12:26:43;;;;;;;10.38;3.15;;;;;;;26.20;30.32;96036.59;5007304;28;20053;-77
2023/10/11 12:29:09;;;;;;;3.90;2.53;;;;;;;26.24;30.79;96016.53;4996980;28;20033;-79
2023/10/11 12:31:44;;;;;;;5.95;2.75;;;;;;;26.06;30.57;95947.34;4994256;28;20528;-78
2023/10/11 12:34:11;;;;;;;9.57;2.63;;;;;;;26.40;30.31;96014.56;4985594;28;20889;-77
2023/10/11 12:36:42;;;;;;;9.13;3.08;;;;;;;26.89;29.92;96025.75;4986721;28;20128;-78
2023/10/11 12:39:12;;;;;;;7.45;3.30;;;;;;;26.84;28.95;95963.44;4990166;28;20045;-77
2023/10/11 12:41:39;;;;;;;12.07;2.80;;;;;;;27.38;28.96;96008.06;4988548;28;20041;-78
2023/10/11 12:44:07;;;;;;;8.07;2.63;;;;;;;27.00;29.36;96020.56;4999019;28;20120;-78
2023/10/11 12:46:33;;;;;;;6.80;2.35;;;;;;;27.04;28.90;95999.63;5005803;28;20084;-78
2023/10/11 12:49:00;;;;;;;5.72;2.70;;;;;;;27.04;29.44;95993.41;4984159;28;20057;-78
2023/10/11 12:51:27;;;;;;;9.18;2.65;;;;;;;27.11;29.46;96005.22;5011833;28;20091;-78